Time;durP1;ratioP1;P1;durP2;ratioP2;P2;SDS_P1;SDS_P2;PMS_P1;PMS_P2;Temp;Humidity;BMP_temperature;BMP_pressure;BME280_temperature;BME280_humidity;BME280_pressure;Samples;Min_cycle;Max_cycle;Signal;HPM_P1;HPM_P2
2023/05/16 00:01:17;;;;;;;11.50;6.13;;;;;;;-145.69;100.00;52553.31;5075343;28;20252;-80
2023/05/16 00:03:44;;;;;;;10.37;6.33;;;;;;;-145.69;100.00;52531.53;5075353;28;20205;-80
2023/05/16 00:06:11;;;;;;;10.00;6.53;;;;;;;-145.69;100.00;52539.44;5056571;28;20195;-80
2023/05/16 00:08:37;;;;;;;9.40;6.17;;;;;;;-145.69;100.00;52561.22;5054838;28;20738;-80
2023/05/16 00:11:05;;;;;;;9.93;6.40;;;;;;;-145.69;100.00;52569.16;5055097;28;20282;-81
2023/05/16 00:13:35;;;;;;;10.53;6.53;;;;;;;-145.69;100.00;52583.00;5054982;28;20204;-80
2023/05/16 00:16:04;;;;;;;14.87;6.80;;;;;;;-145.69;100.00;52519.63;5055129;28;20196;-81
2023/05/16 00:18:36;;;;;;;12.33;6.43;;;;;;;-145.69;100.00;52541.44;5074560;28;20229;-81
2023/05/16 00:21:07;;;;;;;12.03;6.90;;;;;;;-145.69;100.00;52527.56;5055136;28;20199;-80
2023/05/16 00:23:35;;;;;;;10.47;6.87;;;;;;;-145.69;100.00;52527.56;5055002;28;20207;-81
2023/05/16 00:26:02;;;;;;;10.27;6.57;;;;;;;-145.69;100.00;52523.59;5063825;28;20658;-79
2023/05/16 00:28:30;;;;;;;11.57;7.00;;;;;;;-145.69;100.00;52523.59;5074421;28;20203;-81
2023/05/16 00:30:59;;;;;;;12.10;7.40;;;;;;;-145.69;100.00;52541.44;5074197;28;20194;-81
2023/05/16 00:33:25;;;;;;;13.23;7.80;;;;;;;-145.69;100.00;52547.38;5074346;28;20711;-81
2023/05/16 00:35:54;;;;;;;13.13;7.73;;;;;;;-145.69;100.00;52561.22;5074772;28;20210;-80
2023/05/16 00:38:21;;;;;;;12.50;6.50;;;;;;;-145.69;100.00;52537.47;5073746;28;20318;-81
2023/05/16 00:40:48;;;;;;;11.33;6.33;;;;;;;-145.69;100.00;52537.47;5074399;28;20656;-81
2023/05/16 00:43:19;;;;;;;15.43;7.30;;;;;;;-145.69;100.00;52539.44;5074573;28;20237;-79
2023/05/16 00:45:47;;;;;;;12.37;6.70;;;;;;;-145.69;100.00;52543.41;5074512;28;20214;-81
2023/05/16 00:48:18;;;;;;;11.53;7.27;;;;;;;-145.69;100.00;52543.41;5074055;28;20245;-80
2023/05/16 00:50:45;;;;;;;11.07;6.80;;;;;;;-145.69;100.00;52563.22;5058131;28;20217;-81
2023/05/16 00:53:11;;;;;;;10.33;6.83;;;;;;;-145.69;100.00;52561.22;5054245;28;20231;-81
2023/05/16 00:55:41;;;;;;;11.67;7.07;;;;;;;-145.69;100.00;52545.38;5053917;28;20195;-81
2023/05/16 00:58:16;;;;;;;11.27;6.60;;;;;;;-145.69;100.00;52543.41;5054298;28;20223;-81
2023/05/16 01:00:44;;;;;;;11.17;6.67;;;;;;;-145.69;100.00;52543.41;5054205;28;20234;-80
2023/05/16 01:03:12;;;;;;;11.97;6.67;;;;;;;-145.69;100.00;52543.41;5052305;28;20195;-79
2023/05/16 01:05:41;;;;;;;13.80;6.93;;;;;;;-145.69;100.00;52559.25;5054480;28;20199;-80
2023/05/16 01:08:08;;;;;;;14.50;6.77;;;;;;;-145.69;100.00;52553.31;5053430;28;20198;-80
2023/05/16 01:10:46;;;;;;;12.07;6.67;;;;;;;-145.69;100.00;52531.53;5053822;28;20565;-79
2023/05/16 01:13:20;;;;;;;10.67;6.10;;;;;;;-145.69;100.00;52569.16;5053547;28;20199;-80
2023/05/16 01:15:53;;;;;;;10.53;6.47;;;;;;;-145.69;100.00;52579.06;5054142;28;20289;-80
2023/05/16 01:18:29;;;;;;;13.60;6.20;;;;;;;-145.69;100.00;52579.06;5053484;28;20769;-82
2023/05/16 01:21:02;;;;;;;11.03;6.23;;;;;;;-145.69;100.00;52531.53;5053695;28;20206;-81
2023/05/16 01:23:49;;;;;;;8.43;5.67;;;;;;;-145.69;100.00;52523.59;5053865;28;20203;-81
2023/05/16 01:26:20;;;;;;;11.43;7.80;;;;;;;-145.69;100.00;52551.31;5064408;28;20456;-81
2023/05/16 01:28:47;;;;;;;8.73;6.03;;;;;;;-145.69;100.00;52559.25;5071766;28;20198;-80
2023/05/16 01:31:17;;;;;;;11.43;5.57;;;;;;;-145.69;100.00;52539.44;5073330;28;20229;-80
2023/05/16 01:33:44;;;;;;;8.63;5.77;;;;;;;-145.69;100.00;52539.44;5073396;28;20280;-80
2023/05/16 01:36:21;;;;;;;11.57;7.00;;;;;;;-145.69;100.00;52541.44;5073369;28;20230;-80
2023/05/16 01:39:04;;;;;;;8.37;5.93;;;;;;;-145.69;100.00;52577.06;5073602;28;20230;-81
2023/05/16 01:41:41;;;;;;;9.47;6.47;;;;;;;-145.69;100.00;52553.31;5066619;28;20195;-81
2023/05/16 01:44:15;;;;;;;8.17;6.10;;;;;;;-145.69;100.00;52549.34;5053210;28;20612;-81
2023/05/16 01:46:48;;;;;;;9.20;5.73;;;;;;;-145.69;100.00;52537.47;5053211;28;20213;-81
2023/05/16 01:49:18;;;;;;;11.97;6.87;;;;;;;-145.69;100.00;52547.38;5053029;28;20231;-81
2023/05/16 01:51:51;;;;;;;11.13;6.90;;;;;;;-145.69;100.00;52507.75;5053325;28;20210;-81
2023/05/16 01:54:19;;;;;;;9.97;6.03;;;;;;;-145.69;100.00;52547.38;5053254;28;20210;-80
2023/05/16 01:56:53;;;;;;;11.70;7.40;;;;;;;-145.69;100.00;52553.31;5065837;28;20553;-81
2023/05/16 01:59:31;;;;;;;14.67;7.70;;;;;;;-145.69;100.00;52535.47;5069889;28;20323;-81
2023/05/16 02:01:58;;;;;;;11.20;6.43;;;;;;;-145.69;100.00;52543.41;5053620;28;20559;-81
2023/05/16 02:04:25;;;;;;;11.03;6.83;;;;;;;-145.69;100.00;52571.13;5061638;28;20210;-80
2023/05/16 02:06:53;;;;;;;13.87;7.03;;;;;;;-145.69;100.00;52505.78;5053607;28;20199;-80
2023/05/16 02:09:20;;;;;;;12.43;6.73;;;;;;;-145.69;100.00;52531.53;5052900;28;20199;-80
2023/05/16 02:11:48;;;;;;;10.77;6.73;;;;;;;-145.69;100.00;52547.38;5053099;28;20230;-81
2023/05/16 02:14:14;;;;;;;9.33;5.87;;;;;;;-145.69;100.00;52590.94;5052923;28;20230;-80
2023/05/16 02:16:41;;;;;;;10.67;6.00;;;;;;;-145.69;100.00;52579.06;5052734;28;20291;-80
2023/05/16 02:19:10;;;;;;;11.77;7.00;;;;;;;-145.69;100.00;52535.47;5052780;28;20235;-80
2023/05/16 02:21:36;;;;;;;10.40;5.80;;;;;;;-145.69;100.00;52549.34;5052859;28;20230;-81
2023/05/16 02:24:03;;;;;;;14.87;6.13;;;;;;;-145.69;100.00;52559.25;5052822;28;20206;-81
2023/05/16 02:26:30;;;;;;;10.40;6.77;;;;;;;-145.69;100.00;52547.38;5052941;28;20203;-81
2023/05/16 02:28:58;;;;;;;10.97;6.37;;;;;;;-145.69;100.00;52529.53;5053071;28;20274;-82
2023/05/16 02:31:29;;;;;;;10.90;6.37;;;;;;;-145.69;100.00;52531.53;5064191;28;20194;-81
2023/05/16 02:33:57;;;;;;;10.67;6.60;;;;;;;-145.69;100.00;52547.38;5072417;28;20195;-81
2023/05/16 02:36:23;;;;;;;13.93;6.83;;;;;;;-145.69;100.00;52555.28;5072561;28;20234;-81
2023/05/16 02:38:50;;;;;;;18.57;9.30;;;;;;;-145.69;100.00;52531.53;5072673;28;20230;-81
2023/05/16 02:41:16;;;;;;;46.13;23.70;;;;;;;-145.69;100.00;52541.44;5071901;28;20770;-84
2023/05/16 02:43:46;;;;;;;45.73;21.67;;;;;;;-145.69;100.00;52519.63;5073027;28;20565;-82
2023/05/16 02:46:25;;;;;;;41.77;18.63;;;;;;;-145.69;100.00;52553.31;5072878;28;20286;-82
2023/05/16 02:48:54;;;;;;;37.93;17.53;;;;;;;-145.69;100.00;52533.50;5072246;28;20305;-82
2023/05/16 02:51:22;;;;;;;44.97;23.70;;;;;;;-145.69;100.00;52569.16;5072131;28;20443;-81
2023/05/16 02:53:49;;;;;;;56.57;26.23;;;;;;;-145.69;100.00;52567.16;5072776;28;20210;-82
2023/05/16 02:56:16;;;;;;;48.10;23.17;;;;;;;-145.69;100.00;52555.28;5072222;28;20191;-81
2023/05/16 02:58:43;;;;;;;58.47;26.17;;;;;;;-145.69;100.00;52555.28;5040580;28;20709;-82
2023/05/16 03:01:11;;;;;;;55.63;25.07;;;;;;;-145.69;100.00;52527.56;5045701;28;20194;-81
2023/05/16 03:03:39;;;;;;;70.57;28.83;;;;;;;-145.69;100.00;52553.31;5076694;28;20199;-87
2023/05/16 03:06:07;;;;;;;54.97;25.27;;;;;;;-145.69;100.00;52537.47;5076819;28;20199;-82
2023/05/16 03:08:34;;;;;;;52.13;26.97;;;;;;;-145.69;100.00;52535.47;5076633;28;20207;-83
2023/05/16 03:11:01;;;;;;;58.37;27.40;;;;;;;-145.69;100.00;52521.63;5056850;28;20199;-81
2023/05/16 03:13:31;;;;;;;64.70;27.50;;;;;;;-145.69;100.00;52545.38;5056297;28;20311;-82
2023/05/16 03:15:58;;;;;;;50.27;26.13;;;;;;;-145.69;100.00;52549.34;5055933;28;20672;-81
2023/05/16 03:18:25;;;;;;;60.67;26.10;;;;;;;-145.69;100.00;52551.31;5056277;28;20203;-81
2023/05/16 03:20:55;;;;;;;54.57;26.93;;;;;;;-145.69;100.00;52531.53;5055959;28;20195;-81
2023/05/16 03:23:21;;;;;;;58.53;26.90;;;;;;;-145.69;100.00;52523.59;5055991;28;20199;-80
2023/05/16 03:25:48;;;;;;;64.00;28.00;;;;;;;-145.69;100.00;52523.59;5060926;28;20226;-81
2023/05/16 03:28:17;;;;;;;60.60;27.53;;;;;;;-145.69;100.00;52547.38;5073932;28;20194;-81
2023/05/16 03:30:44;;;;;;;72.53;31.27;;;;;;;-145.69;100.00;52535.47;5063157;28;20225;-83
2023/05/16 03:33:10;;;;;;;80.23;32.83;;;;;;;-145.69;100.00;52535.47;5064247;28;20200;-82
2023/05/16 03:35:39;;;;;;;77.93;36.22;;;;;;;-145.69;100.00;52535.47;5055663;28;20440;-83
2023/05/16 03:38:09;;;;;;;83.40;33.40;;;;;;;-145.69;100.00;52547.38;5055708;28;20678;-86
2023/05/16 03:40:41;;;;;;;82.00;32.47;;;;;;;-145.69;100.00;52565.19;5055546;28;20597;-83
2023/05/16 03:43:07;;;;;;;76.80;32.97;;;;;;;-145.69;100.00;52535.47;5055836;28;20218;-81
2023/05/16 03:45:34;;;;;;;78.97;32.60;;;;;;;-145.69;100.00;52575.09;5055982;28;20628;-82
2023/05/16 03:48:01;;;;;;;82.23;33.23;;;;;;;-145.69;100.00;52555.28;5054859;28;20289;-81
2023/05/16 03:50:28;;;;;;;85.57;33.97;;;;;;;-145.69;100.00;52543.41;5055572;28;20203;-81
2023/05/16 03:52:54;;;;;;;91.27;34.97;;;;;;;-145.69;100.00;52555.28;5055607;28;20199;-81
2023/05/16 03:55:22;;;;;;;88.60;37.50;;;;;;;-145.69;100.00;52523.59;5055365;28;20210;-83
2023/05/16 03:57:52;;;;;;;94.70;36.63;;;;;;;-145.69;100.00;52547.38;5054911;28;20210;-81
2023/05/16 04:00:18;;;;;;;89.80;35.83;;;;;;;-145.69;100.00;52553.31;5055342;28;20741;-80
2023/05/16 04:02:45;;;;;;;91.40;35.83;;;;;;;-145.69;100.00;52551.31;5073676;28;20209;-81
2023/05/16 04:05:12;;;;;;;101.43;38.13;;;;;;;-145.69;100.00;52588.97;5075334;28;20203;-81
2023/05/16 04:07:41;;;;;;;92.37;37.97;;;;;;;-145.69;100.00;52557.28;5075019;28;20202;-80
2023/05/16 04:10:09;;;;;;;102.50;37.47;;;;;;;-145.69;100.00;52553.31;5070977;28;20689;-80
2023/05/16 04:12:37;;;;;;;105.87;39.83;;;;;;;-145.69;100.00;52555.28;5053489;28;20196;-81
2023/05/16 04:15:05;;;;;;;105.73;37.60;;;;;;;-145.69;100.00;52561.22;5055260;28;20204;-81
2023/05/16 04:17:32;;;;;;;101.23;38.20;;;;;;;-145.69;100.00;52545.38;5054701;28;20302;-81
2023/05/16 04:20:03;;;;;;;102.83;39.33;;;;;;;-145.69;100.00;52569.16;5054647;28;20236;-81
2023/05/16 04:22:29;;;;;;;102.40;38.23;;;;;;;-145.69;100.00;52531.53;5054819;28;20215;-80
2023/05/16 04:24:59;;;;;;;101.07;37.67;;;;;;;-145.69;100.00;52519.63;5054673;28;20204;-81
2023/05/16 04:27:25;;;;;;;98.63;38.27;;;;;;;-145.69;100.00;52569.16;5054975;28;20204;-81
2023/05/16 04:29:56;;;;;;;104.50;37.50;;;;;;;-145.69;100.00;52539.44;5068931;28;20669;-81
2023/05/16 04:32:22;;;;;;;98.20;37.57;;;;;;;-145.69;100.00;52543.41;5073122;28;20217;-81
2023/05/16 04:34:53;;;;;;;88.87;36.17;;;;;;;-145.69;100.00;52559.25;5074729;28;20237;-81
2023/05/16 04:37:19;;;;;;;90.07;37.10;;;;;;;-145.69;100.00;52563.22;5072845;28;20679;-80
2023/05/16 04:39:46;;;;;;;101.27;38.90;;;;;;;-145.69;100.00;52527.56;5072956;28;20276;-80
2023/05/16 04:42:12;;;;;;;93.13;37.27;;;;;;;-145.69;100.00;52541.44;5054573;28;20203;-80
2023/05/16 04:44:39;;;;;;;97.07;38.53;;;;;;;-145.69;100.00;52535.47;5054569;28;20566;-81
2023/05/16 04:47:08;;;;;;;111.20;41.67;;;;;;;-145.69;100.00;52535.47;5054068;28;20207;-81
2023/05/16 04:49:37;;;;;;;99.17;39.50;;;;;;;-145.69;100.00;52547.38;5054597;28;20203;-80
2023/05/16 04:52:04;;;;;;;103.07;39.60;;;;;;;-145.69;100.00;52539.44;5054547;28;20195;-80
2023/05/16 04:54:31;;;;;;;100.90;39.67;;;;;;;-145.69;100.00;52583.00;5049928;28;20279;-80
2023/05/16 04:57:01;;;;;;;106.07;40.00;;;;;;;-145.69;100.00;52541.44;5034050;28;20247;-80
2023/05/16 04:59:27;;;;;;;111.07;39.37;;;;;;;-145.69;100.00;52535.47;5048439;28;20223;-81
2023/05/16 05:01:59;;;;;;;117.65;48.67;;;;;;;-145.69;100.00;52529.53;5072949;28;20445;-81
2023/05/16 05:04:27;;;;;;;122.93;45.73;;;;;;;-145.69;100.00;52575.09;5060474;28;20198;-80
2023/05/16 05:06:56;;;;;;;105.57;40.80;;;;;;;-145.69;100.00;52535.47;5073508;28;20668;-80
2023/05/16 05:09:23;;;;;;;109.70;40.03;;;;;;;-145.69;100.00;52553.31;5054545;28;20199;-80
2023/05/16 05:11:52;;;;;;;112.30;38.53;;;;;;;-145.69;100.00;52525.59;5053984;28;20261;-80
2023/05/16 05:14:18;;;;;;;114.17;41.47;;;;;;;-145.69;100.00;52543.41;5053881;28;20218;-81
2023/05/16 05:16:47;;;;;;;105.40;39.17;;;;;;;-145.69;100.00;52523.59;5053767;28;20546;-80
2023/05/16 05:19:13;;;;;;;107.53;40.03;;;;;;;-145.69;100.00;52535.47;5054115;28;20227;-81
2023/05/16 05:21:46;;;;;;;112.40;40.17;;;;;;;-145.69;100.00;52545.38;5053797;28;20199;-80
2023/05/16 05:24:12;;;;;;;104.23;39.70;;;;;;;-145.69;100.00;52525.59;5054275;28;20662;-80
2023/05/16 05:26:39;;;;;;;117.47;40.80;;;;;;;-145.69;100.00;52579.06;5054201;28;20302;-81
2023/05/16 05:29:05;;;;;;;101.13;39.60;;;;;;;-145.69;100.00;52531.53;5054081;28;20203;-86
2023/05/16 05:31:32;;;;;;;107.23;39.63;;;;;;;-145.69;100.00;52553.31;5053422;28;20654;-80
2023/05/16 05:33:59;;;;;;;107.90;39.87;;;;;;;-145.69;100.00;52567.16;5053691;28;20261;-80
2023/05/16 05:36:25;;;;;;;97.47;36.43;;;;;;;-145.69;100.00;52563.22;5069455;28;20674;-81
2023/05/16 05:38:56;;;;;;;110.43;39.83;;;;;;;-145.69;100.00;52515.69;5068600;28;20634;-79
2023/05/16 05:41:22;;;;;;;104.60;40.07;;;;;;;-145.69;100.00;52549.34;5049353;28;20230;-79
2023/05/16 05:43:49;;;;;;;114.77;40.60;;;;;;;-145.69;100.00;52511.72;5072783;28;20203;-80
2023/05/16 05:46:16;;;;;;;97.07;39.13;;;;;;;-145.69;100.00;52567.16;5073385;28;20198;-82
2023/05/16 05:48:43;;;;;;;116.27;41.43;;;;;;;-145.69;100.00;52553.31;5073376;28;20226;-79
2023/05/16 05:51:13;;;;;;;105.97;39.20;;;;;;;-145.69;100.00;52549.34;5072940;28;20574;-80
2023/05/16 05:53:39;;;;;;;106.23;40.10;;;;;;;-145.69;100.00;52559.25;5062334;28;20235;-81
2023/05/16 05:56:08;;;;;;;100.27;38.47;;;;;;;-145.69;100.00;52586.97;5053285;28;20204;-82
2023/05/16 05:58:36;;;;;;;96.13;39.20;;;;;;;-145.69;100.00;52541.44;5052979;28;20709;-81
2023/05/16 06:01:03;;;;;;;98.47;37.40;;;;;;;-145.69;100.00;52543.41;5053012;28;20761;-83
2023/05/16 06:03:29;;;;;;;101.20;38.93;;;;;;;-145.69;100.00;52505.78;5053089;28;20200;-80
2023/05/16 06:05:56;;;;;;;113.17;38.43;;;;;;;-145.69;100.00;52539.44;5052944;28;20655;-83
2023/05/16 06:08:22;;;;;;;85.63;36.50;;;;;;;-145.69;100.00;52549.34;5053267;28;20198;-84
2023/05/16 06:10:49;;;;;;;84.53;35.40;;;;;;;-145.69;100.00;52543.41;5067859;28;20206;-81
2023/05/16 06:13:17;;;;;;;88.77;36.43;;;;;;;-145.69;100.00;52553.31;5072861;28;20234;-81
2023/05/16 06:15:43;;;;;;;81.67;34.60;;;;;;;-145.69;100.00;52529.53;5073021;28;20281;-82
2023/05/16 06:18:10;;;;;;;84.57;34.27;;;;;;;-145.69;100.00;52529.53;5072996;28;20199;-81
2023/05/16 06:20:36;;;;;;;84.67;37.07;;;;;;;-145.69;100.00;52551.31;5055252;28;20311;-82
2023/05/16 06:23:03;;;;;;;85.30;35.53;;;;;;;-145.69;100.00;52535.47;5052869;28;20286;-81
2023/05/16 06:25:29;;;;;;;84.10;34.87;;;;;;;-145.69;100.00;52547.38;5052736;28;20203;-80
2023/05/16 06:27:56;;;;;;;81.03;34.87;;;;;;;-145.69;100.00;52531.53;5052955;28;20226;-84
2023/05/16 06:30:24;;;;;;;73.20;32.63;;;;;;;-145.69;100.00;52539.44;5064970;28;20199;-82
2023/05/16 06:32:50;;;;;;;76.13;32.67;;;;;;;-145.69;100.00;52543.41;5072974;28;20203;-81
2023/05/16 06:35:17;;;;;;;78.40;32.77;;;;;;;-145.69;100.00;52577.06;5072754;28;20203;-82
2023/05/16 06:37:46;;;;;;;75.50;33.43;;;;;;;-145.69;100.00;52549.34;5076099;28;20202;-81
2023/05/16 06:40:13;;;;;;;72.40;34.03;;;;;;;-145.69;100.00;52513.69;5067214;28;20230;-83
2023/05/16 06:42:39;;;;;;;72.00;32.60;;;;;;;-145.69;100.00;52541.44;5057241;28;20196;-81
2023/05/16 06:45:10;;;;;;;67.90;32.10;;;;;;;-145.69;100.00;52527.56;5057786;28;20565;-82
2023/05/16 06:47:38;;;;;;;73.93;32.20;;;;;;;-145.69;100.00;52590.94;5056228;28;20284;-81
2023/05/16 06:50:06;;;;;;;76.23;32.90;;;;;;;-145.69;100.00;52561.22;5056689;28;20738;-83
2023/05/16 06:52:35;;;;;;;73.13;34.13;;;;;;;-145.69;100.00;52547.38;5076481;28;20278;-82
2023/05/16 06:55:01;;;;;;;67.80;33.00;;;;;;;-145.69;100.00;52553.31;5076594;28;20319;-81
2023/05/16 06:57:28;;;;;;;75.97;34.30;;;;;;;-145.69;100.00;52541.44;5077324;28;20198;-84
2023/05/16 06:59:55;;;;;;;73.10;34.67;;;;;;;-145.69;100.00;52539.44;5069164;28;20232;-82
2023/05/16 07:02:21;;;;;;;70.47;32.13;;;;;;;-145.69;100.00;52577.06;5051981;28;20215;-82
2023/05/16 07:04:49;;;;;;;72.80;33.87;;;;;;;-145.69;100.00;52537.47;5036265;28;20204;-82
2023/05/16 07:07:16;;;;;;;78.23;33.73;;;;;;;-145.69;100.00;52523.59;5037066;28;20675;-88
2023/05/16 07:09:42;;;;;;;74.13;34.07;;;;;;;-145.69;100.00;52533.50;5071170;28;20207;-81
2023/05/16 07:12:09;;;;;;;72.63;33.57;;;;;;;-145.69;100.00;52551.31;5056146;28;20677;-82
2023/05/16 07:14:36;;;;;;;76.17;32.70;;;;;;;-145.69;100.00;52551.31;5056133;28;20200;-86
2023/05/16 07:17:03;;;;;;;82.00;34.83;;;;;;;-145.69;100.00;52579.06;5056069;28;20207;-81
2023/05/16 07:19:29;;;;;;;77.30;35.03;;;;;;;-145.69;100.00;52531.53;5055798;28;20199;-81
2023/05/16 07:21:57;;;;;;;74.33;33.63;;;;;;;-145.69;100.00;52551.31;5056099;28;20199;-83
2023/05/16 07:24:24;;;;;;;77.13;33.60;;;;;;;-145.69;100.00;52563.22;5057292;28;20209;-80
2023/05/16 07:26:51;;;;;;;69.23;32.43;;;;;;;-145.69;100.00;52551.31;5056020;28;20200;-84
2023/05/16 07:29:17;;;;;;;77.00;33.13;;;;;;;-145.69;100.00;52515.69;5056874;28;20199;-82
2023/05/16 07:31:44;;;;;;;80.43;33.20;;;;;;;-145.69;100.00;52495.88;5062533;28;20290;-79
2023/05/16 07:34:11;;;;;;;78.13;36.37;;;;;;;-145.69;100.00;52527.56;5075725;28;20194;-81
2023/05/16 07:36:37;;;;;;;83.37;34.77;;;;;;;-145.69;100.00;52571.13;5075685;28;20703;-80
2023/05/16 07:39:05;;;;;;;85.70;35.07;;;;;;;-145.69;100.00;52523.59;5075961;28;20207;-81
2023/05/16 07:41:32;;;;;;;84.40;35.73;;;;;;;-145.69;100.00;52537.47;5075718;28;20222;-81
2023/05/16 07:43:58;;;;;;;93.73;36.63;;;;;;;-145.69;100.00;52559.25;5076003;28;20199;-80
2023/05/16 07:46:25;;;;;;;86.83;35.13;;;;;;;-145.69;100.00;52531.53;5075624;28;20199;-81
2023/05/16 07:48:51;;;;;;;85.83;35.13;;;;;;;-145.69;100.00;52543.41;5075186;28;20709;-80
2023/05/16 07:51:18;;;;;;;82.37;35.40;;;;;;;-145.69;100.00;52563.22;5066401;28;20199;-80
2023/05/16 07:53:45;;;;;;;88.23;36.93;;;;;;;-145.69;100.00;52604.81;5055541;28;20200;-80
2023/05/16 07:56:13;;;;;;;92.77;37.00;;;;;;;-145.69;100.00;52557.28;5055092;28;20199;-80
2023/05/16 07:58:39;;;;;;;83.50;36.37;;;;;;;-145.69;100.00;52555.28;5055217;28;20822;-78
2023/05/16 08:01:06;;;;;;;81.60;35.97;;;;;;;-145.69;100.00;52567.16;5070872;28;20226;-84
2023/05/16 08:03:33;;;;;;;88.60;34.90;;;;;;;-145.69;100.00;52551.31;5067912;28;20191;-81
2023/05/16 08:05:59;;;;;;;89.23;35.67;;;;;;;-145.69;100.00;52537.47;5055553;28;20199;-82
2023/05/16 08:08:26;;;;;;;79.67;33.67;;;;;;;-145.69;100.00;52527.56;5055064;28;20245;-84
2023/05/16 08:10:52;;;;;;;83.47;33.00;;;;;;;-145.69;100.00;52523.59;5066342;28;20238;-79
2023/05/16 08:13:23;;;;;;;80.37;33.33;;;;;;;-145.69;100.00;52517.66;5058464;28;20719;-80
2023/05/16 08:15:51;;;;;;;71.50;31.87;;;;;;;-145.69;100.00;52583.00;5064054;28;20195;-80
2023/05/16 08:18:20;;;;;;;66.17;30.77;;;;;;;-145.69;100.00;52551.31;5066149;28;20198;-77
2023/05/16 08:20:47;;;;;;;68.53;29.90;;;;;;;-145.69;100.00;52561.22;5074629;28;20237;-86
2023/05/16 08:23:14;;;;;;;70.50;29.90;;;;;;;-145.69;100.00;52547.38;5075043;28;20278;-82
2023/05/16 08:25:45;;;;;;;60.27;29.57;;;;;;;-145.69;100.00;52559.25;5072576;28;20225;-82
2023/05/16 08:28:12;;;;;;;65.80;28.73;;;;;;;-145.69;100.00;52551.31;5054816;28;20200;-85
2023/05/16 08:30:39;;;;;;;60.07;27.90;;;;;;;-145.69;100.00;52523.59;5054870;28;20558;-81
2023/05/16 08:33:06;;;;;;;55.90;28.17;;;;;;;-145.69;100.00;52529.53;5055393;28;20207;-81
2023/05/16 08:35:37;;;;;;;60.23;28.63;;;;;;;-145.69;100.00;52535.47;5054875;28;20681;-80
2023/05/16 08:38:04;;;;;;;56.30;27.73;;;;;;;-145.69;100.00;52575.09;5054755;28;20199;-88
2023/05/16 08:40:33;;;;;;;60.90;27.47;;;;;;;-145.69;100.00;52561.22;5054610;28;20231;-81
2023/05/16 08:43:14;;;;;;;57.00;26.93;;;;;;;-145.69;100.00;52565.19;5056562;28;20195;-81
2023/05/16 08:45:42;;;;;;;57.37;26.60;;;;;;;-145.69;100.00;52527.56;5074313;28;20653;-81
2023/05/16 08:48:10;;;;;;;69.13;28.77;;;;;;;-145.69;100.00;52583.00;5062685;28;20231;-82
2023/05/16 08:50:37;;;;;;;62.07;28.37;;;;;;;-145.69;100.00;52586.97;5049445;28;20199;-82
2023/05/16 08:53:07;;;;;;;69.60;30.83;;;;;;;-145.69;100.00;52535.47;5054493;28;20231;-81
2023/05/16 08:55:35;;;;;;;55.40;26.07;;;;;;;-145.69;100.00;52575.09;5059151;28;20584;-81
2023/05/16 08:58:03;;;;;;;70.07;27.57;;;;;;;-145.69;100.00;52531.53;5065161;28;20654;-81
2023/05/16 09:00:30;;;;;;;54.90;24.37;;;;;;;-145.69;100.00;52575.09;5053968;28;20238;-82
2023/05/16 09:02:59;;;;;;;44.80;21.33;;;;;;;-145.69;100.00;52567.16;5052928;28;20206;-83
2023/05/16 09:05:28;;;;;;;55.30;25.00;;;;;;;-145.69;100.00;52551.31;5056162;28;20200;-83
2023/05/16 09:08:00;;;;;;;54.10;24.53;;;;;;;-145.69;100.00;52563.22;5052602;28;20277;-80
2023/05/16 09:10:35;;;;;;;55.67;24.13;;;;;;;-145.69;100.00;52557.28;5054934;28;20195;-81
2023/05/16 09:13:02;;;;;;;52.00;23.83;;;;;;;-145.69;100.00;52537.47;5053921;28;20203;-81
2023/05/16 09:15:33;;;;;;;49.60;23.97;;;;;;;-145.69;100.00;52573.13;5057964;28;20236;-81
2023/05/16 09:18:04;;;;;;;55.33;23.77;;;;;;;-145.69;100.00;52583.00;5057476;28;20266;-81
2023/05/16 09:20:33;;;;;;;45.20;21.17;;;;;;;-145.69;100.00;52563.22;5054718;28;20223;-80
2023/05/16 09:23:00;;;;;;;42.33;19.50;;;;;;;-145.69;100.00;52590.94;5054413;28;20281;-82
2023/05/16 09:25:36;;;;;;;42.30;19.47;;;;;;;-145.69;100.00;52537.47;5054474;28;20231;-81
2023/05/16 09:28:03;;;;;;;35.67;18.47;;;;;;;-145.69;100.00;52553.31;5053662;28;20207;-80
2023/05/16 09:30:34;;;;;;;37.20;18.60;;;;;;;-145.69;100.00;52535.47;5053502;28;20574;-79
2023/05/16 09:33:09;;;;;;;34.67;16.63;;;;;;;-145.69;100.00;52551.31;5053504;28;20540;-82
2023/05/16 09:35:37;;;;;;;34.60;17.23;;;;;;;-145.69;100.00;52575.09;5054218;28;20565;-81
2023/05/16 09:38:04;;;;;;;32.43;15.97;;;;;;;-145.69;100.00;52602.81;5053508;28;20199;-80
2023/05/16 09:40:33;;;;;;;32.00;16.03;;;;;;;-145.69;100.00;52553.31;5055058;28;20204;-82
2023/05/16 09:43:05;;;;;;;30.17;15.60;;;;;;;-145.69;100.00;52571.13;5067073;28;20199;-80
2023/05/16 09:45:32;;;;;;;32.47;15.40;;;;;;;-145.69;100.00;52579.06;5053311;28;20291;-81
2023/05/16 09:48:03;;;;;;;31.27;15.83;;;;;;;-145.69;100.00;52569.16;5060960;28;20694;-81
2023/05/16 09:50:36;;;;;;;38.57;17.73;;;;;;;-145.69;100.00;52571.13;5065121;28;20187;-82
2023/05/16 09:53:06;;;;;;;42.07;20.40;;;;;;;-145.69;100.00;52588.97;5072830;28;20202;-80
2023/05/16 09:55:36;;;;;;;38.53;19.07;;;;;;;-145.69;100.00;52561.22;5072664;28;20748;-83
2023/05/16 09:58:03;;;;;;;37.87;18.57;;;;;;;-145.69;100.00;52563.22;5067646;28;20294;-81
2023/05/16 10:00:31;;;;;;;39.60;19.67;;;;;;;-145.69;100.00;52571.13;5053177;28;20650;-82
2023/05/16 10:03:02;;;;;;;38.20;18.70;;;;;;;-145.69;100.00;52575.09;5053180;28;20253;-81
2023/05/16 10:05:30;;;;;;;36.77;18.80;;;;;;;-145.69;100.00;52571.13;5053223;28;20554;-81
2023/05/16 10:07:58;;;;;;;37.33;19.23;;;;;;;-145.69;100.00;52583.00;5054137;28;20291;-81
2023/05/16 10:10:37;;;;;;;46.00;20.57;;;;;;;-145.69;100.00;52596.88;5058542;28;20218;-82
2023/05/16 10:13:08;;;;;;;48.33;21.07;;;;;;;-145.69;100.00;52585.00;5061960;28;20231;-82
2023/05/16 10:15:45;;;;;;;44.00;21.13;;;;;;;-145.69;100.00;52577.06;5068038;28;20199;-82
2023/05/16 10:18:13;;;;;;;42.53;20.20;;;;;;;-145.69;100.00;52579.06;5061893;28;20641;-79
2023/05/16 10:20:49;;;;;;;47.40;21.83;;;;;;;-145.69;100.00;52592.91;5062278;28;20195;-80
2023/05/16 10:23:23;;;;;;;43.23;20.17;;;;;;;-145.69;100.00;52575.09;5054285;28;20621;-79
2023/05/16 10:25:50;;;;;;;45.63;21.23;;;;;;;-145.69;100.00;52571.13;5073048;28;20206;-79
2023/05/16 10:28:19;;;;;;;52.13;23.52;;;;;;;-145.69;100.00;52579.06;5071033;28;20826;-86
2023/05/16 10:30:46;;;;;;;47.07;22.73;;;;;;;-145.69;100.00;52579.06;5053275;28;20249;-84
2023/05/16 10:33:19;;;;;;;47.43;23.03;;;;;;;-145.69;100.00;52561.22;5063890;28;20206;-84
2023/05/16 10:35:46;;;;;;;51.33;22.83;;;;;;;-145.69;100.00;52557.28;5072933;28;20202;-81
2023/05/16 10:38:16;;;;;;;50.60;23.03;;;;;;;-145.69;100.00;52577.06;5072878;28;20206;-82
2023/05/16 10:40:48;;;;;;;58.45;28.55;;;;;;;-145.69;100.00;52565.19;5071303;28;20435;-80
2023/05/16 10:43:27;;;;;;;55.37;24.60;;;;;;;-145.69;100.00;52543.41;5073085;28;20225;-81
2023/05/16 10:45:55;;;;;;;52.13;24.37;;;;;;;-145.69;100.00;52567.16;5073332;28;20198;-80
2023/05/16 10:48:29;;;;;;;54.07;24.97;;;;;;;-145.69;100.00;52545.38;5067163;28;20238;-81
2023/05/16 10:50:55;;;;;;;47.40;23.63;;;;;;;-145.69;100.00;52543.41;5052885;28;20202;-81
2023/05/16 10:53:29;;;;;;;57.03;24.97;;;;;;;-145.69;100.00;52555.28;5052446;28;20203;-81
2023/05/16 10:56:11;;;;;;;48.70;23.87;;;;;;;-145.69;100.00;52571.13;5052996;28;20237;-81
2023/05/16 10:58:47;;;;;;;53.60;23.33;;;;;;;-145.69;100.00;52559.25;5051140;28;20207;-83
2023/05/16 11:01:24;;;;;;;50.07;23.43;;;;;;;-145.69;100.00;52571.13;5057518;28;20218;-81